createdAt,value
2023-01-21T00:01:09.063Z,94.10
2023-01-21T00:03:36.937Z,94.80
2023-01-21T00:06:05.252Z,95.30
2023-01-21T00:08:33.041Z,95.10
2023-01-21T00:11:06.249Z,95.10
2023-01-21T00:13:34.687Z,94.90
2023-01-21T00:16:04.637Z,94.60
2023-01-21T00:18:32.526Z,94.50
2023-01-21T00:21:00.503Z,94.60
2023-01-21T00:23:28.529Z,94.60
2023-01-21T00:25:59.136Z,95.00
2023-01-21T00:28:29.290Z,96.90
2023-01-21T00:30:59.239Z,96.50
2023-01-21T00:33:29.097Z,96.00
2023-01-21T00:36:01.302Z,96.50
2023-01-21T00:38:29.395Z,95.70
2023-01-21T00:41:01.623Z,95.20
2023-01-21T00:43:29.955Z,94.50
2023-01-21T00:45:57.909Z,94.40
2023-01-21T00:48:26.041Z,94.00
2023-01-21T00:50:56.068Z,93.40
2023-01-21T00:53:24.336Z,92.70
2023-01-21T00:55:52.176Z,92.80
2023-01-21T00:58:20.103Z,92.30
2023-01-21T01:00:48.095Z,92.20
2023-01-21T01:03:15.874Z,91.80
2023-01-21T01:05:43.637Z,91.90
2023-01-21T01:08:12.735Z,91.40
2023-01-21T01:10:40.505Z,91.30
2023-01-21T01:13:08.321Z,92.10
2023-01-21T01:15:36.212Z,92.10
2023-01-21T01:18:04.060Z,92.20
2023-01-21T01:20:31.828Z,92.60
2023-01-21T01:22:59.587Z,93.30
2023-01-21T01:25:28.693Z,93.90
2023-01-21T01:27:56.436Z,93.80
2023-01-21T01:30:24.225Z,94.50
2023-01-21T01:32:52.014Z,94.90
2023-01-21T01:35:19.784Z,95.20
2023-01-21T01:37:47.543Z,94.80
2023-01-21T01:40:16.002Z,95.00
2023-01-21T01:42:45.258Z,94.60
2023-01-21T01:45:20.148Z,94.40
2023-01-21T01:47:58.060Z,94.50
2023-01-21T01:50:29.523Z,94.60
2023-01-21T01:53:00.829Z,94.80
2023-01-21T01:55:30.072Z,95.30
2023-01-21T01:57:59.992Z,96.30
2023-01-21T02:00:28.580Z,96.20
2023-01-21T02:03:17.374Z,95.90
2023-01-21T02:05:45.923Z,95.50
2023-01-21T02:08:13.839Z,94.90
2023-01-21T02:10:42.734Z,95.00
2023-01-21T02:13:12.762Z,94.80
2023-01-21T02:15:52.930Z,94.20
2023-01-21T02:18:29.725Z,93.40
2023-01-21T02:21:35.827Z,93.30
2023-01-21T02:24:45.499Z,94.20
2023-01-21T02:27:41.635Z,94.30
2023-01-21T02:30:35.457Z,94.00
2023-01-21T02:33:27.967Z,93.60
2023-01-21T02:36:08.525Z,94.30
2023-01-21T02:38:41.951Z,95.30
2023-01-21T02:41:20.778Z,95.40
2023-01-21T02:43:57.864Z,96.10
2023-01-21T02:46:32.467Z,96.70
2023-01-21T02:49:05.713Z,96.40
2023-01-21T02:51:33.590Z,96.00
2023-01-21T02:54:01.371Z,95.30
2023-01-21T02:56:29.157Z,95.00
2023-01-21T02:59:01.873Z,94.80
2023-01-21T03:01:42.918Z,95.20
2023-01-21T03:04:36.469Z,95.30
2023-01-21T03:07:08.516Z,94.90
2023-01-21T03:09:37.144Z,95.40
2023-01-21T03:12:17.880Z,97.10
2023-01-21T03:15:10.195Z,95.70
2023-01-21T03:17:42.732Z,95.80
2023-01-21T03:20:15.954Z,94.90
2023-01-21T03:22:45.273Z,94.70
2023-01-21T03:25:14.625Z,94.50
2023-01-21T03:27:45.750Z,94.60
2023-01-21T03:30:16.773Z,95.20
2023-01-21T03:32:49.094Z,95.40
2023-01-21T03:35:21.766Z,95.10
2023-01-21T03:37:54.148Z,94.60
2023-01-21T03:40:24.468Z,94.10
2023-01-21T03:42:56.131Z,93.90
2023-01-21T03:45:33.922Z,94.10
2023-01-21T03:48:09.949Z,94.80
2023-01-21T03:50:42.054Z,95.50
2023-01-21T03:53:09.932Z,95.40
2023-01-21T03:55:37.735Z,96.00
2023-01-21T03:58:05.515Z,96.90
2023-01-21T04:00:33.312Z,97.40
2023-01-21T04:03:01.101Z,96.70
2023-01-21T04:05:28.880Z,96.30
2023-01-21T04:07:57.971Z,96.30
2023-01-21T04:10:25.709Z,95.80
2023-01-21T04:12:53.448Z,94.50
2023-01-21T04:15:21.218Z,93.40
2023-01-21T04:17:48.966Z,93.20
2023-01-21T04:20:17.072Z,93.30
2023-01-21T04:22:45.147Z,93.30
2023-01-21T04:25:14.309Z,93.50
2023-01-21T04:27:42.049Z,93.40
2023-01-21T04:30:10.910Z,92.50
2023-01-21T04:32:38.655Z,92.40
2023-01-21T04:35:07.288Z,93.00
2023-01-21T04:37:35.027Z,93.10
2023-01-21T04:40:02.783Z,93.50
2023-01-21T04:42:31.887Z,93.60
2023-01-21T04:44:59.637Z,94.10
2023-01-21T04:47:27.430Z,94.10
2023-01-21T04:49:55.247Z,94.40
2023-01-21T04:52:23.046Z,94.50
2023-01-21T04:54:50.794Z,94.00
2023-01-21T04:57:18.527Z,93.50
2023-01-21T04:59:47.606Z,93.60
2023-01-21T05:02:15.399Z,94.20
2023-01-21T05:04:43.165Z,94.90
2023-01-21T05:07:11.683Z,95.00
2023-01-21T05:09:39.499Z,95.10
2023-01-21T05:12:07.773Z,95.50
2023-01-21T05:14:36.018Z,95.60
2023-01-21T05:17:05.470Z,95.50
2023-01-21T05:19:33.255Z,95.00
2023-01-21T05:22:01.034Z,94.30
2023-01-21T05:24:28.759Z,93.70
2023-01-21T05:26:56.533Z,93.80
2023-01-21T05:29:24.271Z,93.70
2023-01-21T05:31:52.038Z,93.30
2023-01-21T05:34:21.202Z,93.30
2023-01-21T05:36:48.937Z,93.40
2023-01-21T05:39:16.768Z,93.10
2023-01-21T05:41:45.083Z,94.10
2023-01-21T05:44:12.982Z,94.50
2023-01-21T05:46:40.737Z,94.60
2023-01-21T05:49:08.489Z,94.30
2023-01-21T05:51:37.590Z,93.60
2023-01-21T05:54:05.660Z,93.20
2023-01-21T05:56:33.456Z,93.10
2023-01-21T05:59:01.252Z,93.20
2023-01-21T06:01:29.145Z,93.80
2023-01-21T06:03:56.967Z,93.70
2023-01-21T06:06:24.750Z,93.30
2023-01-21T06:08:53.888Z,93.10
2023-01-21T06:11:21.650Z,92.70
2023-01-21T06:13:49.402Z,92.30
2023-01-21T06:16:17.140Z,92.20
2023-01-21T06:18:45.905Z,92.10
2023-01-21T06:21:13.681Z,91.80
2023-01-21T06:23:41.444Z,92.10
2023-01-21T06:26:10.620Z,92.80
2023-01-21T06:28:38.352Z,93.40
2023-01-21T06:31:06.499Z,93.50
2023-01-21T06:33:34.293Z,93.90
2023-01-21T06:36:02.165Z,94.10
2023-01-21T06:38:29.905Z,94.00
2023-01-21T06:40:57.652Z,93.80
2023-01-21T06:43:26.755Z,94.10
2023-01-21T06:45:54.704Z,94.00
2023-01-21T06:48:22.542Z,94.20
2023-01-21T06:50:50.296Z,94.60
2023-01-21T06:53:18.079Z,94.80
2023-01-21T06:55:47.394Z,95.30
2023-01-21T06:58:15.179Z,95.70
2023-01-21T07:00:44.488Z,96.00
2023-01-21T07:03:12.366Z,96.50
2023-01-21T07:05:40.129Z,96.30
2023-01-21T07:08:07.851Z,95.50
2023-01-21T07:10:35.618Z,95.20
2023-01-21T07:13:03.347Z,94.90
2023-01-21T07:15:31.644Z,95.00
2023-01-21T07:18:00.741Z,95.00
2023-01-21T07:20:28.639Z,95.00
2023-01-21T07:22:56.490Z,95.40
2023-01-21T07:25:24.317Z,95.70
2023-01-21T07:27:52.098Z,96.10
2023-01-21T07:30:21.191Z,96.20
2023-01-21T07:32:49.416Z,96.10
2023-01-21T07:35:18.939Z,95.20
2023-01-21T07:37:46.809Z,93.80
2023-01-21T07:40:14.746Z,92.70
2023-01-21T07:42:42.530Z,91.60
2023-01-21T07:45:11.095Z,89.80
2023-01-21T07:47:38.839Z,88.20
2023-01-21T07:50:08.688Z,88.10
2023-01-21T07:52:37.973Z,88.50
2023-01-21T07:55:07.362Z,88.30
2023-01-21T07:57:35.763Z,88.20
2023-01-21T08:00:03.618Z,87.60
2023-01-21T08:02:31.441Z,87.90
2023-01-21T08:04:59.289Z,88.50
2023-01-21T08:07:27.083Z,88.80
2023-01-21T08:09:56.192Z,88.10
2023-01-21T08:12:26.361Z,87.80
2023-01-21T08:14:54.978Z,87.50
2023-01-21T08:17:22.743Z,87.00
2023-01-21T08:19:50.511Z,85.80
2023-01-21T08:22:18.239Z,84.50
2023-01-21T08:24:46.057Z,85.30
2023-01-21T08:27:15.130Z,86.40
2023-01-21T08:29:42.888Z,85.70
2023-01-21T08:32:10.665Z,85.80
2023-01-21T08:34:38.521Z,85.10
2023-01-21T08:37:06.268Z,85.10
2023-01-21T08:39:34.045Z,84.60
2023-01-21T08:42:01.767Z,84.90
2023-01-21T08:44:30.880Z,85.70
2023-01-21T08:46:58.660Z,85.80
2023-01-21T08:49:26.418Z,85.70
2023-01-21T08:51:54.266Z,85.50
2023-01-21T08:54:22.016Z,84.60
2023-01-21T08:56:49.782Z,85.10
2023-01-21T08:59:17.561Z,85.60
2023-01-21T09:01:46.668Z,86.20
2023-01-21T09:04:14.440Z,87.10
2023-01-21T09:06:42.198Z,87.50
2023-01-21T09:09:11.900Z,87.50
2023-01-21T09:11:39.691Z,88.40
2023-01-21T09:14:07.437Z,88.20
2023-01-21T09:16:36.332Z,87.70
2023-01-21T09:19:05.610Z,86.10
2023-01-21T09:21:35.701Z,86.80
2023-01-21T09:24:03.622Z,86.90
2023-01-21T09:26:31.373Z,87.00
2023-01-21T09:29:00.431Z,87.10
2023-01-21T09:31:30.726Z,88.20
2023-01-21T09:34:00.549Z,88.00
2023-01-21T09:36:30.959Z,88.00
2023-01-21T09:38:59.369Z,88.80
2023-01-21T09:41:30.278Z,89.10
2023-01-21T09:44:04.227Z,90.20
2023-01-21T09:46:41.682Z,90.60
2023-01-21T09:49:15.949Z,90.20
2023-01-21T09:51:53.121Z,90.00
2023-01-21T09:54:26.574Z,88.40
2023-01-21T09:57:09.249Z,88.80
2023-01-21T09:59:50.455Z,88.70
2023-01-21T10:02:26.983Z,88.20
2023-01-21T10:05:06.700Z,88.70
2023-01-21T10:07:43.097Z,88.30
2023-01-21T10:10:21.312Z,87.70
2023-01-21T10:13:02.932Z,86.80
2023-01-21T10:15:47.474Z,87.60
2023-01-21T10:18:19.010Z,87.30
2023-01-21T10:20:51.752Z,89.30
2023-01-21T10:23:25.853Z,89.00
2023-01-21T10:25:53.687Z,88.20
2023-01-21T10:28:24.560Z,89.00
2023-01-21T10:30:54.131Z,88.10
2023-01-21T10:33:24.354Z,88.50
2023-01-21T10:36:16.286Z,88.40
2023-01-21T10:38:53.230Z,88.10
2023-01-21T10:41:32.585Z,88.80
2023-01-21T10:44:10.107Z,89.00
2023-01-21T10:46:45.990Z,89.90
2023-01-21T10:49:26.451Z,89.60
2023-01-21T10:52:01.680Z,89.70
2023-01-21T10:54:44.821Z,90.80
2023-01-21T10:57:27.656Z,91.50
2023-01-21T10:59:59.306Z,91.70
2023-01-21T11:02:31.155Z,92.40
2023-01-21T11:05:02.173Z,92.40
2023-01-21T11:07:35.795Z,91.70
2023-01-21T11:10:09.885Z,91.20
2023-01-21T11:12:37.643Z,91.80
2023-01-21T11:15:14.881Z,90.80
2023-01-21T11:17:45.277Z,90.80
2023-01-21T11:20:22.132Z,90.40
2023-01-21T11:22:51.063Z,90.50
2023-01-21T11:25:37.260Z,90.50
2023-01-21T11:28:05.579Z,90.20
2023-01-21T11:30:50.040Z,91.40
2023-01-21T11:33:26.451Z,90.80
2023-01-21T11:35:56.171Z,91.30
2023-01-21T11:38:33.068Z,92.30
2023-01-21T11:41:04.706Z,92.00
2023-01-21T11:43:43.101Z,90.70
2023-01-21T11:46:28.194Z,90.30
2023-01-21T11:48:57.670Z,90.80
2023-01-21T11:51:25.578Z,91.40
2023-01-21T11:54:13.080Z,91.80
2023-01-21T11:56:44.201Z,91.20
2023-01-21T11:59:18.536Z,91.10
2023-01-21T12:01:52.385Z,90.80
2023-01-21T12:04:20.333Z,91.30
2023-01-21T12:06:51.595Z,90.90
2023-01-21T12:09:21.176Z,90.50
2023-01-21T12:12:10.981Z,90.90
2023-01-21T12:14:51.930Z,91.10
2023-01-21T12:17:32.574Z,91.20
2023-01-21T12:20:21.880Z,91.40
2023-01-21T12:23:04.727Z,91.00
2023-01-21T12:25:41.516Z,90.60
2023-01-21T12:28:35.382Z,90.50
2023-01-21T12:31:12.747Z,91.30
2023-01-21T12:33:49.513Z,89.90
2023-01-21T12:36:22.641Z,90.00
2023-01-21T12:38:58.705Z,89.80
2023-01-21T12:41:30.774Z,89.50
2023-01-21T12:44:07.217Z,88.90
2023-01-21T12:46:40.925Z,89.40
2023-01-21T12:49:16.133Z,90.20
2023-01-21T12:51:46.461Z,90.40
2023-01-21T12:54:19.270Z,90.20
2023-01-21T12:56:54.911Z,89.70
2023-01-21T12:59:31.212Z,89.30
2023-01-21T13:02:05.469Z,89.20
2023-01-21T13:04:45.762Z,89.10
2023-01-21T13:07:24.462Z,89.60
2023-01-21T13:09:57.141Z,88.50
2023-01-21T13:12:27.180Z,89.10
2023-01-21T13:15:02.793Z,89.00
2023-01-21T13:17:34.789Z,89.90
2023-01-21T13:20:13.161Z,90.10
2023-01-21T13:22:46.034Z,89.50
2023-01-21T13:25:24.296Z,89.60
2023-01-21T13:27:59.021Z,89.60
2023-01-21T13:30:35.570Z,89.80
2023-01-21T13:33:13.627Z,90.00
2023-01-21T13:35:51.278Z,90.20
2023-01-21T13:38:26.331Z,90.10
2023-01-21T13:41:02.061Z,90.10
2023-01-21T13:43:54.346Z,90.20
2023-01-21T13:46:42.681Z,90.60
2023-01-21T13:49:52.832Z,90.60
2023-01-21T13:52:26.264Z,90.80
2023-01-21T13:55:17.644Z,91.20
2023-01-21T13:58:02.427Z,91.20
2023-01-21T14:00:34.649Z,91.80
2023-01-21T14:03:14.559Z,91.40
2023-01-21T14:05:49.267Z,91.50
2023-01-21T14:08:24.483Z,91.20
2023-01-21T14:10:56.593Z,91.60
2023-01-21T14:13:50.602Z,91.50
2023-01-21T14:17:00.955Z,91.50
2023-01-21T14:20:07.723Z,91.50
2023-01-21T14:22:59.213Z,91.30
2023-01-21T14:25:37.491Z,91.60
2023-01-21T14:28:15.998Z,92.00
2023-01-21T14:30:48.952Z,92.60
2023-01-21T14:33:21.255Z,92.90
2023-01-21T14:35:56.795Z,92.40
2023-01-21T14:38:37.885Z,92.30
2023-01-21T14:41:08.006Z,92.60
2023-01-21T14:43:50.807Z,92.40
2023-01-21T14:46:27.046Z,92.50
2023-01-21T14:49:00.184Z,92.00
2023-01-21T14:51:31.379Z,91.90
2023-01-21T14:54:02.294Z,91.90
2023-01-21T14:56:32.643Z,91.80
2023-01-21T14:59:03.333Z,91.50
2023-01-21T15:01:40.364Z,90.80
2023-01-21T15:04:20.971Z,91.40
2023-01-21T15:06:52.834Z,91.80
2023-01-21T15:09:25.728Z,92.00
2023-01-21T15:11:57.985Z,92.40
2023-01-21T15:14:27.933Z,92.00
2023-01-21T15:16:55.732Z,92.00
2023-01-21T15:19:26.767Z,91.70
2023-01-21T15:22:19.293Z,92.00
2023-01-21T15:25:26.855Z,92.30
2023-01-21T15:28:35.069Z,92.40
2023-01-21T15:31:06.282Z,92.40
2023-01-21T15:33:39.911Z,92.60
2023-01-21T15:36:19.555Z,92.80
2023-01-21T15:38:49.629Z,92.80
2023-01-21T15:41:27.921Z,92.60
2023-01-21T15:44:16.661Z,92.80
2023-01-21T15:46:55.288Z,93.10
2023-01-21T15:49:37.036Z,93.00
2023-01-21T15:52:26.355Z,93.50
2023-01-21T15:55:04.253Z,93.50
2023-01-21T15:57:44.304Z,93.40
2023-01-21T16:00:26.866Z,93.70
2023-01-21T16:03:01.259Z,93.40
2023-01-21T16:05:44.416Z,93.30
2023-01-21T16:08:24.853Z,93.20
2023-01-21T16:11:03.189Z,93.30
2023-01-21T16:13:44.103Z,93.70
2023-01-21T16:16:17.974Z,94.10
2023-01-21T16:18:54.518Z,94.30
2023-01-21T16:21:25.513Z,94.10
2023-01-21T16:23:56.987Z,94.40
2023-01-21T16:26:27.814Z,94.20
2023-01-21T16:28:55.970Z,94.60
2023-01-21T16:31:24.231Z,94.20
2023-01-21T16:33:53.625Z,94.40
2023-01-21T16:36:21.567Z,94.20
2023-01-21T16:38:49.479Z,94.70
2023-01-21T16:41:24.644Z,94.60
2023-01-21T16:43:56.459Z,94.70
2023-01-21T16:46:27.051Z,94.70
2023-01-21T16:48:58.253Z,94.70
2023-01-21T16:51:29.678Z,94.90
2023-01-21T16:54:25.306Z,95.30
2023-01-21T16:56:56.573Z,95.50
2023-01-21T16:59:28.083Z,95.50
2023-01-21T17:01:57.371Z,94.50
2023-01-21T17:04:25.376Z,94.70
2023-01-21T17:06:53.940Z,94.60
2023-01-21T17:09:30.595Z,94.60
2023-01-21T17:12:02.143Z,95.20
2023-01-21T17:14:32.431Z,94.70
2023-01-21T17:17:01.642Z,94.50
2023-01-21T17:19:33.601Z,94.20
2023-01-21T17:22:03.886Z,94.10
2023-01-21T17:24:37.212Z,94.10
2023-01-21T17:27:10.912Z,94.60
2023-01-21T17:29:40.053Z,94.20
2023-01-21T17:32:24.422Z,94.50
2023-01-21T17:35:08.918Z,94.30
2023-01-21T17:37:45.603Z,94.60
2023-01-21T17:40:27.308Z,94.00
2023-01-21T17:42:55.477Z,93.50
2023-01-21T17:45:30.690Z,93.70
2023-01-21T17:48:11.773Z,93.70
2023-01-21T17:50:46.295Z,93.80
2023-01-21T17:53:20.709Z,93.60
2023-01-21T17:55:57.658Z,93.90
2023-01-21T17:58:46.650Z,93.60
2023-01-21T18:01:17.329Z,93.50
2023-01-21T18:03:45.145Z,94.00
2023-01-21T18:06:23.430Z,93.30
2023-01-21T18:08:52.713Z,93.70
2023-01-21T18:11:21.053Z,93.40
2023-01-21T18:13:49.978Z,93.50
2023-01-21T18:16:19.194Z,93.80
2023-01-21T18:18:47.128Z,93.60
2023-01-21T18:21:19.802Z,93.60
2023-01-21T18:23:47.685Z,93.90
2023-01-21T18:26:22.703Z,93.80
2023-01-21T18:28:50.460Z,93.70
2023-01-21T18:31:19.755Z,93.50
2023-01-21T18:33:47.619Z,93.40
2023-01-21T18:36:15.388Z,93.80
2023-01-21T18:38:43.256Z,93.70
2023-01-21T18:41:13.361Z,93.80
2023-01-21T18:43:41.877Z,93.90
2023-01-21T18:46:12.681Z,93.90
2023-01-21T18:48:42.807Z,93.40
2023-01-21T18:51:10.885Z,93.70
2023-01-21T18:53:38.714Z,93.90
2023-01-21T18:56:10.520Z,94.20
2023-01-21T18:58:38.501Z,94.20
2023-01-21T19:01:21.411Z,94.50
2023-01-21T19:03:53.664Z,94.70
2023-01-21T19:06:22.533Z,95.00
2023-01-21T19:08:50.398Z,95.10
2023-01-21T19:11:18.182Z,95.50
2023-01-21T19:13:46.053Z,95.40
2023-01-21T19:16:18.631Z,95.30
2023-01-21T19:18:47.026Z,95.70
2023-01-21T19:21:16.231Z,96.00
2023-01-21T19:23:43.998Z,96.20
2023-01-21T19:26:14.233Z,96.30
2023-01-21T19:28:42.378Z,96.60
2023-01-21T19:31:10.282Z,96.30
2023-01-21T19:33:38.119Z,96.20
2023-01-21T19:36:14.988Z,96.50
2023-01-21T19:38:47.111Z,96.70
2023-01-21T19:41:14.878Z,96.90
2023-01-21T19:43:42.967Z,96.80
2023-01-21T19:46:12.457Z,96.90
2023-01-21T19:48:41.017Z,97.10
2023-01-21T19:51:09.231Z,97.10
2023-01-21T19:53:37.169Z,96.90
2023-01-21T19:56:07.782Z,96.90
2023-01-21T19:58:35.732Z,97.20
2023-01-21T20:01:03.585Z,97.20
2023-01-21T20:03:31.424Z,97.50
2023-01-21T20:06:02.988Z,97.40
2023-01-21T20:08:32.260Z,97.70
2023-01-21T20:11:00.147Z,97.80
2023-01-21T20:13:32.174Z,97.80
2023-01-21T20:16:03.646Z,97.50
2023-01-21T20:18:33.428Z,97.60
2023-01-21T20:21:01.302Z,97.70
2023-01-21T20:23:32.447Z,97.80
2023-01-21T20:26:00.900Z,97.80
2023-01-21T20:28:37.153Z,97.70
2023-01-21T20:31:07.149Z,97.70
2023-01-21T20:33:36.278Z,97.60
2023-01-21T20:36:06.862Z,97.90
2023-01-21T20:38:36.253Z,98.10
2023-01-21T20:41:06.349Z,98.10
2023-01-21T20:43:35.442Z,97.90
2023-01-21T20:46:06.373Z,98.10
2023-01-21T20:48:37.162Z,98.30
2023-01-21T20:51:05.426Z,97.80
2023-01-21T20:53:33.561Z,97.00
2023-01-21T20:56:05.418Z,96.90
2023-01-21T20:58:34.591Z,97.20
2023-01-21T21:01:02.377Z,97.40
2023-01-21T21:03:30.133Z,97.60
2023-01-21T21:05:57.906Z,97.90
2023-01-21T21:08:26.294Z,98.20
2023-01-21T21:10:55.354Z,98.30
2023-01-21T21:13:23.099Z,98.00
2023-01-21T21:15:52.779Z,98.10
2023-01-21T21:18:20.588Z,98.40
2023-01-21T21:20:48.343Z,98.50
2023-01-21T21:23:16.100Z,98.30
2023-01-21T21:25:46.332Z,98.20
2023-01-21T21:28:16.525Z,98.70
2023-01-21T21:30:44.842Z,98.60
2023-01-21T21:33:19.873Z,98.80
2023-01-21T21:35:47.790Z,99.10
2023-01-21T21:38:18.963Z,99.10
2023-01-21T21:40:47.620Z,99.30
2023-01-21T21:43:32.434Z,99.00
2023-01-21T21:46:22.082Z,99.10
2023-01-21T21:48:51.886Z,99.40
2023-01-21T21:51:21.695Z,99.60
2023-01-21T21:53:49.844Z,99.80
2023-01-21T21:56:19.185Z,99.30
2023-01-21T21:58:47.749Z,99.40
2023-01-21T22:01:17.653Z,99.20
2023-01-21T22:03:45.836Z,98.80
2023-01-21T22:06:15.612Z,99.00
2023-01-21T22:08:44.255Z,98.80
2023-01-21T22:11:15.156Z,98.80
2023-01-21T22:13:43.516Z,99.10
2023-01-21T22:16:14.027Z,99.10
2023-01-21T22:18:42.204Z,98.90
2023-01-21T22:21:14.486Z,98.70
2023-01-21T22:23:42.739Z,98.30
2023-01-21T22:26:13.435Z,98.20
2023-01-21T22:28:42.204Z,98.00
2023-01-21T22:31:12.580Z,98.00
2023-01-21T22:33:40.725Z,97.90
2023-01-21T22:36:11.057Z,97.70
2023-01-21T22:38:40.995Z,97.50
2023-01-21T22:41:10.331Z,97.40
2023-01-21T22:43:41.716Z,97.30
2023-01-21T22:46:12.045Z,97.70
2023-01-21T22:48:41.395Z,97.90
2023-01-21T22:51:12.116Z,97.70
2023-01-21T22:53:41.405Z,97.50
2023-01-21T22:56:09.351Z,97.40
2023-01-21T22:58:37.637Z,97.60
2023-01-21T23:01:06.204Z,97.50
2023-01-21T23:03:34.107Z,97.40
2023-01-21T23:06:06.165Z,97.50
2023-01-21T23:08:34.562Z,97.30
2023-01-21T23:11:05.439Z,97.40
2023-01-21T23:13:33.849Z,97.50
2023-01-21T23:16:02.217Z,97.50
2023-01-21T23:18:30.496Z,97.70
2023-01-21T23:20:58.253Z,97.80
2023-01-21T23:23:26.189Z,97.70
2023-01-21T23:25:54.504Z,97.50
2023-01-21T23:28:24.452Z,97.60
2023-01-21T23:30:52.330Z,97.70
2023-01-21T23:33:20.139Z,97.60
2023-01-21T23:35:55.219Z,97.90
2023-01-21T23:38:23.267Z,97.90
2023-01-21T23:40:51.030Z,97.90
2023-01-21T23:43:18.777Z,97.90
2023-01-21T23:45:47.923Z,97.80
2023-01-21T23:48:15.711Z,97.80
2023-01-21T23:50:43.492Z,97.80
2023-01-21T23:53:11.253Z,97.80
2023-01-21T23:55:39.002Z,97.50
2023-01-21T23:58:06.778Z,97.40
